sensor_id;sensor_type;location;lat;lon;timestamp;P1;durP1;ratioP1;P2;durP2;ratioP2
4533;SDS011;2279;51.448;7.306;2023-09-12T00:00:21;243.30;;;104.17;;
4533;SDS011;2279;51.448;7.306;2023-09-12T00:02:48;243.90;;;102.50;;
4533;SDS011;2279;51.448;7.306;2023-09-12T00:05:14;239.90;;;96.60;;
4533;SDS011;2279;51.448;7.306;2023-09-12T00:07:40;242.57;;;101.67;;
4533;SDS011;2279;51.448;7.306;2023-09-12T00:10:06;241.70;;;101.30;;
4533;SDS011;2279;51.448;7.306;2023-09-12T00:12:32;241.83;;;100.13;;
4533;SDS011;2279;51.448;7.306;2023-09-12T00:14:58;244.27;;;107.67;;
4533;SDS011;2279;51.448;7.306;2023-09-12T00:17:24;239.97;;;96.60;;
4533;SDS011;2279;51.448;7.306;2023-09-12T00:19:51;238.97;;;99.27;;
4533;SDS011;2279;51.448;7.306;2023-09-12T00:22:17;242.03;;;100.57;;
4533;SDS011;2279;51.448;7.306;2023-09-12T00:24:43;241.33;;;97.60;;
4533;SDS011;2279;51.448;7.306;2023-09-12T00:27:09;246.40;;;101.50;;
4533;SDS011;2279;51.448;7.306;2023-09-12T00:29:35;240.10;;;97.33;;
4533;SDS011;2279;51.448;7.306;2023-09-12T00:32:01;244.40;;;103.30;;
4533;SDS011;2279;51.448;7.306;2023-09-12T00:34:27;241.50;;;97.90;;
4533;SDS011;2279;51.448;7.306;2023-09-12T00:36:53;244.67;;;98.77;;
4533;SDS011;2279;51.448;7.306;2023-09-12T00:39:19;241.03;;;97.87;;
4533;SDS011;2279;51.448;7.306;2023-09-12T00:41:45;239.90;;;98.33;;
4533;SDS011;2279;51.448;7.306;2023-09-12T00:44:11;244.97;;;103.70;;
4533;SDS011;2279;51.448;7.306;2023-09-12T00:46:37;239.10;;;96.43;;
4533;SDS011;2279;51.448;7.306;2023-09-12T00:49:04;243.37;;;103.87;;
4533;SDS011;2279;51.448;7.306;2023-09-12T00:51:30;245.23;;;104.23;;
4533;SDS011;2279;51.448;7.306;2023-09-12T00:53:57;242.33;;;101.53;;
4533;SDS011;2279;51.448;7.306;2023-09-12T00:56:23;243.27;;;99.20;;
4533;SDS011;2279;51.448;7.306;2023-09-12T00:58:49;238.93;;;97.03;;
4533;SDS011;2279;51.448;7.306;2023-09-12T01:01:17;245.23;;;102.77;;
4533;SDS011;2279;51.448;7.306;2023-09-12T01:03:43;238.53;;;93.20;;
4533;SDS011;2279;51.448;7.306;2023-09-12T01:06:09;241.73;;;98.57;;
4533;SDS011;2279;51.448;7.306;2023-09-12T01:08:35;240.73;;;97.50;;
4533;SDS011;2279;51.448;7.306;2023-09-12T01:11:04;241.20;;;98.37;;
4533;SDS011;2279;51.448;7.306;2023-09-12T01:13:30;241.53;;;98.30;;
4533;SDS011;2279;51.448;7.306;2023-09-12T01:15:56;245.43;;;105.20;;
4533;SDS011;2279;51.448;7.306;2023-09-12T01:18:22;244.77;;;102.20;;
4533;SDS011;2279;51.448;7.306;2023-09-12T01:20:56;246.23;;;105.23;;
4533;SDS011;2279;51.448;7.306;2023-09-12T01:26:29;245.63;;;104.03;;
4533;SDS011;2279;51.448;7.306;2023-09-12T01:28:55;243.50;;;97.83;;
4533;SDS011;2279;51.448;7.306;2023-09-12T01:31:23;239.00;;;95.43;;
4533;SDS011;2279;51.448;7.306;2023-09-12T01:33:49;244.97;;;102.90;;
4533;SDS011;2279;51.448;7.306;2023-09-12T01:36:15;243.17;;;98.83;;
4533;SDS011;2279;51.448;7.306;2023-09-12T01:38:41;239.93;;;96.73;;
4533;SDS011;2279;51.448;7.306;2023-09-12T01:41:07;237.70;;;93.03;;
4533;SDS011;2279;51.448;7.306;2023-09-12T01:43:33;242.27;;;100.33;;
4533;SDS011;2279;51.448;7.306;2023-09-12T01:46:02;244.10;;;103.77;;
4533;SDS011;2279;51.448;7.306;2023-09-12T01:48:33;242.73;;;102.57;;
4533;SDS011;2279;51.448;7.306;2023-09-12T01:51:00;241.83;;;101.83;;
4533;SDS011;2279;51.448;7.306;2023-09-12T01:53:26;242.70;;;102.27;;
4533;SDS011;2279;51.448;7.306;2023-09-12T01:55:53;242.47;;;105.30;;
4533;SDS011;2279;51.448;7.306;2023-09-12T01:58:19;239.13;;;97.97;;
4533;SDS011;2279;51.448;7.306;2023-09-12T02:00:45;238.83;;;97.70;;
4533;SDS011;2279;51.448;7.306;2023-09-12T02:03:11;241.17;;;100.47;;
4533;SDS011;2279;51.448;7.306;2023-09-12T02:05:37;242.20;;;99.47;;
4533;SDS011;2279;51.448;7.306;2023-09-12T02:08:03;238.13;;;95.80;;
4533;SDS011;2279;51.448;7.306;2023-09-12T02:10:30;244.20;;;107.00;;
4533;SDS011;2279;51.448;7.306;2023-09-12T02:12:56;239.17;;;99.00;;
4533;SDS011;2279;51.448;7.306;2023-09-12T02:15:22;237.60;;;97.77;;
4533;SDS011;2279;51.448;7.306;2023-09-12T02:17:48;243.57;;;106.03;;
4533;SDS011;2279;51.448;7.306;2023-09-12T02:20:17;238.13;;;95.10;;
4533;SDS011;2279;51.448;7.306;2023-09-12T02:22:44;241.83;;;103.60;;
4533;SDS011;2279;51.448;7.306;2023-09-12T02:25:10;237.13;;;96.13;;
4533;SDS011;2279;51.448;7.306;2023-09-12T02:27:36;237.93;;;95.47;;
4533;SDS011;2279;51.448;7.306;2023-09-12T02:30:03;241.57;;;102.30;;
4533;SDS011;2279;51.448;7.306;2023-09-12T02:32:29;242.50;;;101.93;;
4533;SDS011;2279;51.448;7.306;2023-09-12T02:34:55;239.43;;;98.67;;
4533;SDS011;2279;51.448;7.306;2023-09-12T02:37:22;241.83;;;100.33;;
4533;SDS011;2279;51.448;7.306;2023-09-12T02:39:48;242.53;;;102.20;;
4533;SDS011;2279;51.448;7.306;2023-09-12T02:42:14;241.13;;;97.00;;
4533;SDS011;2279;51.448;7.306;2023-09-12T02:44:40;242.43;;;102.40;;
4533;SDS011;2279;51.448;7.306;2023-09-12T02:47:06;244.77;;;100.10;;
4533;SDS011;2279;51.448;7.306;2023-09-12T02:49:32;242.73;;;102.13;;
4533;SDS011;2279;51.448;7.306;2023-09-12T02:51:58;239.37;;;96.37;;
4533;SDS011;2279;51.448;7.306;2023-09-12T02:54:23;238.37;;;96.97;;
4533;SDS011;2279;51.448;7.306;2023-09-12T02:56:49;240.77;;;96.40;;
4533;SDS011;2279;51.448;7.306;2023-09-12T02:59:15;238.30;;;94.67;;
4533;SDS011;2279;51.448;7.306;2023-09-12T03:01:41;238.87;;;95.87;;
4533;SDS011;2279;51.448;7.306;2023-09-12T03:04:07;235.60;;;93.83;;
4533;SDS011;2279;51.448;7.306;2023-09-12T03:06:33;234.37;;;93.97;;
4533;SDS011;2279;51.448;7.306;2023-09-12T03:09:00;239.23;;;100.90;;
4533;SDS011;2279;51.448;7.306;2023-09-12T03:11:26;233.37;;;91.93;;
4533;SDS011;2279;51.448;7.306;2023-09-12T03:13:53;236.47;;;94.53;;
4533;SDS011;2279;51.448;7.306;2023-09-12T03:16:19;237.17;;;99.63;;
4533;SDS011;2279;51.448;7.306;2023-09-12T03:18:45;236.53;;;99.30;;
4533;SDS011;2279;51.448;7.306;2023-09-12T03:21:10;236.47;;;100.00;;
4533;SDS011;2279;51.448;7.306;2023-09-12T03:23:36;242.87;;;107.53;;
4533;SDS011;2279;51.448;7.306;2023-09-12T03:26:03;236.27;;;97.57;;
4533;SDS011;2279;51.448;7.306;2023-09-12T03:28:29;235.63;;;96.60;;
4533;SDS011;2279;51.448;7.306;2023-09-12T03:31:08;237.53;;;99.53;;
4533;SDS011;2279;51.448;7.306;2023-09-12T03:33:38;241.27;;;101.50;;
4533;SDS011;2279;51.448;7.306;2023-09-12T03:36:08;237.67;;;96.07;;
4533;SDS011;2279;51.448;7.306;2023-09-12T03:38:34;234.60;;;93.43;;
4533;SDS011;2279;51.448;7.306;2023-09-12T03:41:00;236.17;;;96.93;;
4533;SDS011;2279;51.448;7.306;2023-09-12T03:43:27;237.47;;;96.17;;
4533;SDS011;2279;51.448;7.306;2023-09-12T03:45:53;233.47;;;92.20;;
4533;SDS011;2279;51.448;7.306;2023-09-12T03:48:19;238.30;;;97.43;;
4533;SDS011;2279;51.448;7.306;2023-09-12T03:50:45;239.60;;;97.23;;
4533;SDS011;2279;51.448;7.306;2023-09-12T03:53:11;237.53;;;96.70;;
4533;SDS011;2279;51.448;7.306;2023-09-12T03:55:37;239.60;;;96.70;;
4533;SDS011;2279;51.448;7.306;2023-09-12T03:58:03;238.47;;;98.93;;
4533;SDS011;2279;51.448;7.306;2023-09-12T04:00:29;243.40;;;105.43;;
4533;SDS011;2279;51.448;7.306;2023-09-12T04:02:55;241.17;;;105.90;;
4533;SDS011;2279;51.448;7.306;2023-09-12T04:05:21;243.23;;;105.83;;
4533;SDS011;2279;51.448;7.306;2023-09-12T04:07:47;240.13;;;99.83;;
4533;SDS011;2279;51.448;7.306;2023-09-12T04:10:13;240.37;;;97.30;;
4533;SDS011;2279;51.448;7.306;2023-09-12T04:12:39;238.10;;;98.27;;
4533;SDS011;2279;51.448;7.306;2023-09-12T04:15:06;241.60;;;101.50;;
4533;SDS011;2279;51.448;7.306;2023-09-12T04:17:32;243.27;;;104.23;;
4533;SDS011;2279;51.448;7.306;2023-09-12T04:19:58;240.43;;;101.20;;
4533;SDS011;2279;51.448;7.306;2023-09-12T04:22:24;242.67;;;106.13;;
4533;SDS011;2279;51.448;7.306;2023-09-12T04:24:50;241.97;;;103.73;;
4533;SDS011;2279;51.448;7.306;2023-09-12T04:27:16;245.07;;;108.87;;
4533;SDS011;2279;51.448;7.306;2023-09-12T04:29:41;243.20;;;107.83;;
4533;SDS011;2279;51.448;7.306;2023-09-12T04:32:07;240.77;;;101.17;;
4533;SDS011;2279;51.448;7.306;2023-09-12T04:34:33;242.63;;;99.93;;
4533;SDS011;2279;51.448;7.306;2023-09-12T04:37:00;242.17;;;101.07;;
4533;SDS011;2279;51.448;7.306;2023-09-12T04:39:27;238.83;;;95.53;;
4533;SDS011;2279;51.448;7.306;2023-09-12T04:41:53;238.03;;;93.93;;
4533;SDS011;2279;51.448;7.306;2023-09-12T04:44:19;237.90;;;96.23;;
4533;SDS011;2279;51.448;7.306;2023-09-12T04:46:45;239.87;;;98.13;;
4533;SDS011;2279;51.448;7.306;2023-09-12T04:49:11;252.53;;;106.93;;
4533;SDS011;2279;51.448;7.306;2023-09-12T04:51:37;240.63;;;96.90;;
4533;SDS011;2279;51.448;7.306;2023-09-12T04:54:03;241.60;;;100.87;;
4533;SDS011;2279;51.448;7.306;2023-09-12T04:56:29;239.20;;;99.10;;
4533;SDS011;2279;51.448;7.306;2023-09-12T04:58:55;238.93;;;96.47;;
4533;SDS011;2279;51.448;7.306;2023-09-12T05:01:21;235.40;;;93.13;;
4533;SDS011;2279;51.448;7.306;2023-09-12T05:03:47;239.60;;;97.93;;
4533;SDS011;2279;51.448;7.306;2023-09-12T05:06:13;241.67;;;101.40;;
4533;SDS011;2279;51.448;7.306;2023-09-12T05:08:39;238.57;;;97.60;;
4533;SDS011;2279;51.448;7.306;2023-09-12T05:11:05;238.73;;;95.20;;
4533;SDS011;2279;51.448;7.306;2023-09-12T05:13:31;238.40;;;94.77;;
4533;SDS011;2279;51.448;7.306;2023-09-12T05:15:58;236.73;;;93.40;;
4533;SDS011;2279;51.448;7.306;2023-09-12T05:18:24;239.07;;;98.97;;
4533;SDS011;2279;51.448;7.306;2023-09-12T05:20:50;241.63;;;99.57;;
4533;SDS011;2279;51.448;7.306;2023-09-12T05:23:16;237.77;;;93.80;;
4533;SDS011;2279;51.448;7.306;2023-09-12T05:25:42;242.43;;;101.00;;
4533;SDS011;2279;51.448;7.306;2023-09-12T05:28:08;237.67;;;95.23;;
4533;SDS011;2279;51.448;7.306;2023-09-12T05:30:34;237.23;;;93.93;;
4533;SDS011;2279;51.448;7.306;2023-09-12T05:33:00;238.80;;;96.47;;
4533;SDS011;2279;51.448;7.306;2023-09-12T05:35:26;239.90;;;100.83;;
4533;SDS011;2279;51.448;7.306;2023-09-12T05:37:52;240.47;;;98.63;;
4533;SDS011;2279;51.448;7.306;2023-09-12T05:40:18;238.50;;;94.87;;
4533;SDS011;2279;51.448;7.306;2023-09-12T05:42:44;238.77;;;94.80;;
4533;SDS011;2279;51.448;7.306;2023-09-12T05:45:10;242.50;;;97.37;;
4533;SDS011;2279;51.448;7.306;2023-09-12T05:47:36;243.63;;;103.30;;
4533;SDS011;2279;51.448;7.306;2023-09-12T05:50:02;239.60;;;97.73;;
4533;SDS011;2279;51.448;7.306;2023-09-12T05:52:31;241.27;;;101.63;;
4533;SDS011;2279;51.448;7.306;2023-09-12T05:54:57;238.63;;;94.10;;
4533;SDS011;2279;51.448;7.306;2023-09-12T05:57:23;242.60;;;98.13;;
4533;SDS011;2279;51.448;7.306;2023-09-12T05:59:49;240.10;;;96.10;;
4533;SDS011;2279;51.448;7.306;2023-09-12T06:02:15;237.37;;;93.90;;
4533;SDS011;2279;51.448;7.306;2023-09-12T06:04:42;239.73;;;96.73;;
4533;SDS011;2279;51.448;7.306;2023-09-12T06:07:08;247.37;;;104.80;;
4533;SDS011;2279;51.448;7.306;2023-09-12T06:09:34;243.00;;;97.43;;
4533;SDS011;2279;51.448;7.306;2023-09-12T06:12:01;242.93;;;96.83;;
4533;SDS011;2279;51.448;7.306;2023-09-12T06:14:27;243.07;;;97.23;;
4533;SDS011;2279;51.448;7.306;2023-09-12T06:16:53;245.37;;;100.27;;
4533;SDS011;2279;51.448;7.306;2023-09-12T06:19:19;244.23;;;97.83;;
4533;SDS011;2279;51.448;7.306;2023-09-12T06:21:45;240.87;;;98.03;;
4533;SDS011;2279;51.448;7.306;2023-09-12T06:24:15;242.93;;;98.40;;
4533;SDS011;2279;51.448;7.306;2023-09-12T06:26:41;241.80;;;99.90;;
4533;SDS011;2279;51.448;7.306;2023-09-12T06:29:07;239.83;;;99.33;;
4533;SDS011;2279;51.448;7.306;2023-09-12T06:31:33;242.03;;;99.70;;
4533;SDS011;2279;51.448;7.306;2023-09-12T06:34:00;236.50;;;93.50;;
4533;SDS011;2279;51.448;7.306;2023-09-12T06:36:26;239.97;;;100.20;;
4533;SDS011;2279;51.448;7.306;2023-09-12T06:38:56;242.17;;;102.70;;
4533;SDS011;2279;51.448;7.306;2023-09-12T06:41:22;240.87;;;102.23;;
4533;SDS011;2279;51.448;7.306;2023-09-12T06:43:48;240.33;;;98.97;;
4533;SDS011;2279;51.448;7.306;2023-09-12T06:46:14;240.57;;;99.23;;
4533;SDS011;2279;51.448;7.306;2023-09-12T06:48:42;248.63;;;106.83;;
4533;SDS011;2279;51.448;7.306;2023-09-12T06:51:09;237.83;;;94.57;;
4533;SDS011;2279;51.448;7.306;2023-09-12T06:53:35;242.57;;;100.13;;
4533;SDS011;2279;51.448;7.306;2023-09-12T06:56:04;239.97;;;95.03;;
4533;SDS011;2279;51.448;7.306;2023-09-12T06:58:30;244.30;;;100.87;;
4533;SDS011;2279;51.448;7.306;2023-09-12T07:01:01;245.17;;;103.23;;
4533;SDS011;2279;51.448;7.306;2023-09-12T07:03:28;244.57;;;104.93;;
4533;SDS011;2279;51.448;7.306;2023-09-12T07:05:53;243.13;;;102.40;;
4533;SDS011;2279;51.448;7.306;2023-09-12T07:08:19;240.30;;;97.70;;
4533;SDS011;2279;51.448;7.306;2023-09-12T07:10:45;236.50;;;94.67;;
4533;SDS011;2279;51.448;7.306;2023-09-12T07:13:11;241.17;;;98.50;;
4533;SDS011;2279;51.448;7.306;2023-09-12T07:15:37;239.83;;;100.60;;
4533;SDS011;2279;51.448;7.306;2023-09-12T07:18:04;243.50;;;101.43;;
4533;SDS011;2279;51.448;7.306;2023-09-12T07:20:31;241.63;;;101.53;;
4533;SDS011;2279;51.448;7.306;2023-09-12T07:22:57;242.27;;;101.77;;
4533;SDS011;2279;51.448;7.306;2023-09-12T07:25:23;237.13;;;96.30;;
4533;SDS011;2279;51.448;7.306;2023-09-12T07:27:49;243.00;;;102.33;;
4533;SDS011;2279;51.448;7.306;2023-09-12T07:30:15;240.10;;;98.90;;
4533;SDS011;2279;51.448;7.306;2023-09-12T07:32:41;241.57;;;101.17;;
4533;SDS011;2279;51.448;7.306;2023-09-12T07:35:07;239.87;;;97.20;;
4533;SDS011;2279;51.448;7.306;2023-09-12T07:37:33;242.37;;;103.63;;
4533;SDS011;2279;51.448;7.306;2023-09-12T07:39:59;239.17;;;98.90;;
4533;SDS011;2279;51.448;7.306;2023-09-12T07:42:25;238.13;;;97.60;;
4533;SDS011;2279;51.448;7.306;2023-09-12T07:44:51;238.23;;;97.37;;
4533;SDS011;2279;51.448;7.306;2023-09-12T07:47:18;245.20;;;102.50;;
4533;SDS011;2279;51.448;7.306;2023-09-12T07:49:44;242.53;;;107.00;;
4533;SDS011;2279;51.448;7.306;2023-09-12T07:52:10;236.53;;;95.10;;
4533;SDS011;2279;51.448;7.306;2023-09-12T07:54:36;249.60;;;104.73;;
4533;SDS011;2279;51.448;7.306;2023-09-12T07:57:02;246.07;;;108.83;;
4533;SDS011;2279;51.448;7.306;2023-09-12T07:59:28;243.70;;;105.43;;
4533;SDS011;2279;51.448;7.306;2023-09-12T08:01:54;243.43;;;105.13;;
4533;SDS011;2279;51.448;7.306;2023-09-12T08:04:20;241.30;;;101.77;;
4533;SDS011;2279;51.448;7.306;2023-09-12T08:06:46;240.27;;;100.80;;
4533;SDS011;2279;51.448;7.306;2023-09-12T08:09:12;237.80;;;97.80;;
4533;SDS011;2279;51.448;7.306;2023-09-12T08:11:38;241.80;;;102.97;;
4533;SDS011;2279;51.448;7.306;2023-09-12T08:14:04;241.77;;;101.90;;
4533;SDS011;2279;51.448;7.306;2023-09-12T08:16:30;239.80;;;100.67;;
4533;SDS011;2279;51.448;7.306;2023-09-12T08:18:56;244.47;;;104.40;;
4533;SDS011;2279;51.448;7.306;2023-09-12T08:21:23;241.07;;;104.30;;
4533;SDS011;2279;51.448;7.306;2023-09-12T08:23:49;241.87;;;105.07;;
4533;SDS011;2279;51.448;7.306;2023-09-12T08:26:15;239.87;;;101.53;;
4533;SDS011;2279;51.448;7.306;2023-09-12T08:28:41;241.37;;;104.60;;
4533;SDS011;2279;51.448;7.306;2023-09-12T08:31:07;241.53;;;103.33;;
4533;SDS011;2279;51.448;7.306;2023-09-12T08:33:33;245.57;;;108.67;;
4533;SDS011;2279;51.448;7.306;2023-09-12T08:35:59;245.67;;;109.20;;
4533;SDS011;2279;51.448;7.306;2023-09-12T08:38:25;239.73;;;100.33;;
4533;SDS011;2279;51.448;7.306;2023-09-12T08:40:51;241.87;;;104.47;;
4533;SDS011;2279;51.448;7.306;2023-09-12T08:43:17;239.03;;;99.87;;
4533;SDS011;2279;51.448;7.306;2023-09-12T08:45:43;238.37;;;100.73;;
4533;SDS011;2279;51.448;7.306;2023-09-12T08:48:10;242.00;;;106.20;;
4533;SDS011;2279;51.448;7.306;2023-09-12T08:50:36;244.50;;;111.33;;
4533;SDS011;2279;51.448;7.306;2023-09-12T08:53:03;239.73;;;103.73;;
4533;SDS011;2279;51.448;7.306;2023-09-12T08:55:29;241.63;;;101.47;;
4533;SDS011;2279;51.448;7.306;2023-09-12T08:57:56;239.87;;;103.17;;
4533;SDS011;2279;51.448;7.306;2023-09-12T09:00:23;243.67;;;111.40;;
4533;SDS011;2279;51.448;7.306;2023-09-12T09:02:50;248.33;;;116.10;;
4533;SDS011;2279;51.448;7.306;2023-09-12T09:05:16;243.83;;;108.53;;
4533;SDS011;2279;51.448;7.306;2023-09-12T09:07:42;241.57;;;103.17;;
4533;SDS011;2279;51.448;7.306;2023-09-12T09:10:16;240.80;;;102.87;;
4533;SDS011;2279;51.448;7.306;2023-09-12T09:12:43;240.13;;;104.67;;
4533;SDS011;2279;51.448;7.306;2023-09-12T09:15:22;242.87;;;106.50;;
4533;SDS011;2279;51.448;7.306;2023-09-12T09:17:48;242.20;;;102.57;;
4533;SDS011;2279;51.448;7.306;2023-09-12T09:20:25;243.27;;;109.43;;
4533;SDS011;2279;51.448;7.306;2023-09-12T09:23:02;243.17;;;106.93;;
4533;SDS011;2279;51.448;7.306;2023-09-12T09:25:34;240.40;;;104.03;;
4533;SDS011;2279;51.448;7.306;2023-09-12T09:28:02;244.70;;;109.47;;
4533;SDS011;2279;51.448;7.306;2023-09-12T09:30:39;245.77;;;112.77;;
4533;SDS011;2279;51.448;7.306;2023-09-12T09:33:05;244.27;;;111.00;;
4533;SDS011;2279;51.448;7.306;2023-09-12T09:35:31;247.43;;;117.83;;
4533;SDS011;2279;51.448;7.306;2023-09-12T09:37:57;247.90;;;117.33;;
4533;SDS011;2279;51.448;7.306;2023-09-12T09:40:24;247.03;;;120.10;;
4533;SDS011;2279;51.448;7.306;2023-09-12T09:42:53;251.20;;;127.37;;
4533;SDS011;2279;51.448;7.306;2023-09-12T09:45:19;249.27;;;124.67;;
4533;SDS011;2279;51.448;7.306;2023-09-12T09:47:45;248.20;;;123.77;;
4533;SDS011;2279;51.448;7.306;2023-09-12T09:50:14;250.20;;;128.73;;
4533;SDS011;2279;51.448;7.306;2023-09-12T09:52:40;248.50;;;127.07;;
4533;SDS011;2279;51.448;7.306;2023-09-12T09:55:06;247.43;;;125.17;;
4533;SDS011;2279;51.448;7.306;2023-09-12T09:57:38;249.00;;;129.30;;
4533;SDS011;2279;51.448;7.306;2023-09-12T10:00:04;251.93;;;130.80;;
4533;SDS011;2279;51.448;7.306;2023-09-12T10:02:34;247.93;;;128.93;;
4533;SDS011;2279;51.448;7.306;2023-09-12T10:05:02;247.33;;;125.03;;
4533;SDS011;2279;51.448;7.306;2023-09-12T10:07:30;248.37;;;127.50;;
4533;SDS011;2279;51.448;7.306;2023-09-12T10:09:57;249.07;;;131.77;;
4533;SDS011;2279;51.448;7.306;2023-09-12T10:12:23;246.33;;;128.57;;
4533;SDS011;2279;51.448;7.306;2023-09-12T10:14:50;250.67;;;132.17;;
4533;SDS011;2279;51.448;7.306;2023-09-12T10:17:16;252.87;;;136.60;;
4533;SDS011;2279;51.448;7.306;2023-09-12T10:19:50;246.67;;;131.10;;
4533;SDS011;2279;51.448;7.306;2023-09-12T10:22:21;248.70;;;134.73;;
4533;SDS011;2279;51.448;7.306;2023-09-12T10:24:49;249.43;;;134.83;;
4533;SDS011;2279;51.448;7.306;2023-09-12T10:27:16;253.67;;;138.87;;
4533;SDS011;2279;51.448;7.306;2023-09-12T10:29:42;252.73;;;138.83;;
4533;SDS011;2279;51.448;7.306;2023-09-12T10:32:12;248.17;;;135.30;;
4533;SDS011;2279;51.448;7.306;2023-09-12T10:34:38;249.03;;;133.80;;
4533;SDS011;2279;51.448;7.306;2023-09-12T10:37:08;250.53;;;136.83;;
4533;SDS011;2279;51.448;7.306;2023-09-12T10:39:34;247.30;;;135.70;;
4533;SDS011;2279;51.448;7.306;2023-09-12T10:42:02;245.73;;;131.50;;
4533;SDS011;2279;51.448;7.306;2023-09-12T10:44:30;246.43;;;136.20;;
4533;SDS011;2279;51.448;7.306;2023-09-12T10:46:56;248.63;;;139.57;;
4533;SDS011;2279;51.448;7.306;2023-09-12T10:49:23;246.80;;;134.00;;
4533;SDS011;2279;51.448;7.306;2023-09-12T10:51:49;249.73;;;141.27;;
4533;SDS011;2279;51.448;7.306;2023-09-12T10:54:16;246.47;;;131.87;;
4533;SDS011;2279;51.448;7.306;2023-09-12T10:57:10;250.53;;;138.07;;
4533;SDS011;2279;51.448;7.306;2023-09-12T11:02:35;244.40;;;130.33;;
4533;SDS011;2279;51.448;7.306;2023-09-12T11:05:06;245.73;;;130.30;;
4533;SDS011;2279;51.448;7.306;2023-09-12T11:12:35;246.60;;;140.07;;
4533;SDS011;2279;51.448;7.306;2023-09-12T11:15:05;243.77;;;135.10;;
4533;SDS011;2279;51.448;7.306;2023-09-12T11:17:36;247.47;;;141.80;;
4533;SDS011;2279;51.448;7.306;2023-09-12T11:20:03;242.83;;;137.10;;
4533;SDS011;2279;51.448;7.306;2023-09-12T11:30:12;245.40;;;135.23;;
4533;SDS011;2279;51.448;7.306;2023-09-12T11:32:38;245.43;;;136.73;;
4533;SDS011;2279;51.448;7.306;2023-09-12T11:35:05;246.97;;;133.23;;
4533;SDS011;2279;51.448;7.306;2023-09-12T11:37:32;245.67;;;129.63;;
4533;SDS011;2279;51.448;7.306;2023-09-12T11:39:58;245.83;;;126.27;;
4533;SDS011;2279;51.448;7.306;2023-09-12T11:42:24;245.00;;;128.30;;
4533;SDS011;2279;51.448;7.306;2023-09-12T11:44:50;248.27;;;131.33;;
4533;SDS011;2279;51.448;7.306;2023-09-12T11:47:17;247.77;;;126.30;;
4533;SDS011;2279;51.448;7.306;2023-09-12T11:49:43;246.33;;;124.03;;
4533;SDS011;2279;51.448;7.306;2023-09-12T11:52:10;246.20;;;127.30;;
4533;SDS011;2279;51.448;7.306;2023-09-12T11:54:41;247.47;;;127.07;;
4533;SDS011;2279;51.448;7.306;2023-09-12T11:57:08;255.53;;;134.60;;
4533;SDS011;2279;51.448;7.306;2023-09-12T11:59:38;243.50;;;123.47;;
4533;SDS011;2279;51.448;7.306;2023-09-12T12:02:07;243.07;;;119.90;;
4533;SDS011;2279;51.448;7.306;2023-09-12T12:04:34;242.90;;;122.03;;
4533;SDS011;2279;51.448;7.306;2023-09-12T12:07:00;248.67;;;133.17;;
4533;SDS011;2279;51.448;7.306;2023-09-12T12:09:26;244.37;;;125.17;;
4533;SDS011;2279;51.448;7.306;2023-09-12T12:11:52;244.80;;;124.60;;
4533;SDS011;2279;51.448;7.306;2023-09-12T12:14:18;245.30;;;125.70;;
4533;SDS011;2279;51.448;7.306;2023-09-12T12:16:46;242.83;;;122.50;;
4533;SDS011;2279;51.448;7.306;2023-09-12T12:19:13;244.40;;;125.17;;
4533;SDS011;2279;51.448;7.306;2023-09-12T12:21:39;247.20;;;128.93;;
4533;SDS011;2279;51.448;7.306;2023-09-12T12:24:07;245.23;;;128.10;;
4533;SDS011;2279;51.448;7.306;2023-09-12T12:26:33;246.40;;;131.73;;
4533;SDS011;2279;51.448;7.306;2023-09-12T12:29:00;244.30;;;126.20;;
4533;SDS011;2279;51.448;7.306;2023-09-12T12:31:27;244.87;;;128.43;;
4533;SDS011;2279;51.448;7.306;2023-09-12T12:33:53;245.30;;;129.43;;
4533;SDS011;2279;51.448;7.306;2023-09-12T12:36:20;244.90;;;129.20;;
4533;SDS011;2279;51.448;7.306;2023-09-12T12:38:47;246.13;;;130.57;;
4533;SDS011;2279;51.448;7.306;2023-09-12T12:41:16;247.00;;;136.77;;
4533;SDS011;2279;51.448;7.306;2023-09-12T12:43:42;249.63;;;143.73;;
4533;SDS011;2279;51.448;7.306;2023-09-12T12:46:12;247.33;;;138.67;;
4533;SDS011;2279;51.448;7.306;2023-09-12T12:48:38;246.17;;;136.27;;
4533;SDS011;2279;51.448;7.306;2023-09-12T12:53:44;244.37;;;135.87;;
4533;SDS011;2279;51.448;7.306;2023-09-12T12:56:11;245.50;;;135.53;;
4533;SDS011;2279;51.448;7.306;2023-09-12T12:58:39;244.70;;;136.90;;
4533;SDS011;2279;51.448;7.306;2023-09-12T13:01:04;244.53;;;130.67;;
4533;SDS011;2279;51.448;7.306;2023-09-12T13:03:30;244.73;;;135.03;;
4533;SDS011;2279;51.448;7.306;2023-09-12T13:05:56;246.77;;;137.63;;
4533;SDS011;2279;51.448;7.306;2023-09-12T13:08:22;247.53;;;135.83;;
4533;SDS011;2279;51.448;7.306;2023-09-12T13:10:50;242.10;;;133.43;;
4533;SDS011;2279;51.448;7.306;2023-09-12T13:13:16;242.40;;;133.03;;
4533;SDS011;2279;51.448;7.306;2023-09-12T13:15:42;247.43;;;136.87;;
4533;SDS011;2279;51.448;7.306;2023-09-12T13:18:08;244.20;;;132.97;;
4533;SDS011;2279;51.448;7.306;2023-09-12T13:20:34;246.77;;;142.27;;
4533;SDS011;2279;51.448;7.306;2023-09-12T13:23:00;244.73;;;135.33;;
4533;SDS011;2279;51.448;7.306;2023-09-12T13:25:26;244.07;;;140.77;;
4533;SDS011;2279;51.448;7.306;2023-09-12T13:27:51;245.67;;;141.53;;
4533;SDS011;2279;51.448;7.306;2023-09-12T13:30:18;246.07;;;141.80;;
4533;SDS011;2279;51.448;7.306;2023-09-12T13:32:44;245.10;;;140.13;;
4533;SDS011;2279;51.448;7.306;2023-09-12T13:35:11;245.10;;;139.83;;
4533;SDS011;2279;51.448;7.306;2023-09-12T13:37:37;242.37;;;136.73;;
4533;SDS011;2279;51.448;7.306;2023-09-12T13:40:03;244.90;;;140.57;;
4533;SDS011;2279;51.448;7.306;2023-09-12T13:42:31;246.30;;;142.87;;
4533;SDS011;2279;51.448;7.306;2023-09-12T13:44:57;243.60;;;135.47;;
4533;SDS011;2279;51.448;7.306;2023-09-12T13:47:23;244.57;;;138.40;;
4533;SDS011;2279;51.448;7.306;2023-09-12T13:49:50;245.90;;;135.93;;
4533;SDS011;2279;51.448;7.306;2023-09-12T13:52:17;245.23;;;137.37;;
4533;SDS011;2279;51.448;7.306;2023-09-12T13:54:43;242.80;;;138.80;;
4533;SDS011;2279;51.448;7.306;2023-09-12T13:57:09;251.03;;;152.53;;
4533;SDS011;2279;51.448;7.306;2023-09-12T13:59:35;247.33;;;146.63;;
4533;SDS011;2279;51.448;7.306;2023-09-12T14:02:01;248.77;;;144.67;;
4533;SDS011;2279;51.448;7.306;2023-09-12T14:04:27;245.07;;;136.30;;
4533;SDS011;2279;51.448;7.306;2023-09-12T14:06:53;244.07;;;135.43;;
4533;SDS011;2279;51.448;7.306;2023-09-12T14:09:19;242.43;;;129.73;;
4533;SDS011;2279;51.448;7.306;2023-09-12T14:11:46;248.20;;;142.17;;
4533;SDS011;2279;51.448;7.306;2023-09-12T14:14:12;246.83;;;138.63;;
4533;SDS011;2279;51.448;7.306;2023-09-12T14:16:38;248.37;;;140.50;;
4533;SDS011;2279;51.448;7.306;2023-09-12T14:19:04;242.40;;;135.00;;
4533;SDS011;2279;51.448;7.306;2023-09-12T14:21:30;244.33;;;138.00;;
4533;SDS011;2279;51.448;7.306;2023-09-12T14:23:57;240.67;;;131.27;;
4533;SDS011;2279;51.448;7.306;2023-09-12T14:26:23;245.43;;;140.93;;
4533;SDS011;2279;51.448;7.306;2023-09-12T14:28:49;247.33;;;144.30;;
4533;SDS011;2279;51.448;7.306;2023-09-12T14:31:15;244.27;;;139.20;;
4533;SDS011;2279;51.448;7.306;2023-09-12T14:33:42;246.63;;;142.47;;
4533;SDS011;2279;51.448;7.306;2023-09-12T14:36:08;243.13;;;140.00;;
4533;SDS011;2279;51.448;7.306;2023-09-12T14:38:34;241.67;;;136.40;;
4533;SDS011;2279;51.448;7.306;2023-09-12T14:41:00;242.10;;;137.40;;
4533;SDS011;2279;51.448;7.306;2023-09-12T14:43:26;245.10;;;141.80;;